Neilburg, Canada
Current Conditions -  °F | °C
As of 6:00 PM on Wednesday 22 Oct 2014 (Local Time) from CYLL Reporting Station
Scattered Clouds Scattered Clouds  
Wind Chill: 55°   Ceiling: Unl
Heat Index: 55°   Visibility: 15mi
Dew Point: 32°   Wind: 10mph
Humidity: 41%   Direction: 140°SE
Pressure: 29.68"   Gusts: NA
Location:  52.83°N, 109.63°W
Report Text: CYLL 222300Z 14009KT 15SM FEW140 SCT250 13/M00 A2968 RMK AC2CI2 SLP068 DENSITY ALT 2700FT
Loading
Personal Weather Stations






























Interactive Weather Map
Tropical Storm Tracking
New forecast layout! Learn more

10-Day Weather Forecast

Advertisements
Track Severe Weather on mobile